createdAt,value
2022-09-10T00:01:32.062Z,66.80
2022-09-10T00:04:01.483Z,67.00
2022-09-10T00:06:33.150Z,66.90
2022-09-10T00:09:03.075Z,67.10
2022-09-10T00:11:31.983Z,67.20
2022-09-10T00:14:00.662Z,67.10
2022-09-10T00:16:29.231Z,67.30
2022-09-10T00:18:58.541Z,67.30
2022-09-10T00:21:26.921Z,67.30
2022-09-10T00:23:55.039Z,67.40
2022-09-10T00:26:26.673Z,67.50
2022-09-10T00:28:56.746Z,67.90
2022-09-10T00:31:25.146Z,67.70
2022-09-10T00:33:54.773Z,67.60
2022-09-10T00:36:24.815Z,67.80
2022-09-10T00:38:54.870Z,67.90
2022-09-10T00:41:25.953Z,68.00
2022-09-10T00:43:56.426Z,68.10
2022-09-10T00:46:30.277Z,68.10
2022-09-10T00:49:01.994Z,68.30
2022-09-10T00:51:36.035Z,68.00
2022-09-10T00:54:05.274Z,68.10
2022-09-10T00:56:36.436Z,67.90
2022-09-10T00:59:06.611Z,68.10
2022-09-10T01:01:36.323Z,68.10
2022-09-10T01:04:06.037Z,68.10
2022-09-10T01:06:34.778Z,68.30
2022-09-10T01:09:03.097Z,68.30
2022-09-10T01:11:46.815Z,68.40
2022-09-10T01:14:36.070Z,69.20
2022-09-10T01:17:15.509Z,69.10
2022-09-10T01:20:17.547Z,68.70
2022-09-10T01:23:04.804Z,69.00
2022-09-10T01:25:47.570Z,69.00
2022-09-10T01:28:20.491Z,68.90
2022-09-10T01:30:54.804Z,68.80
2022-09-10T01:33:27.751Z,69.10
2022-09-10T01:36:09.686Z,69.50
2022-09-10T01:38:40.185Z,69.40
2022-09-10T01:41:09.002Z,69.40
2022-09-10T01:43:38.583Z,69.30
2022-09-10T01:46:20.283Z,69.50
2022-09-10T01:49:13.957Z,70.20
2022-09-10T01:52:03.125Z,70.60
2022-09-10T01:54:45.542Z,70.40
2022-09-10T01:57:24.519Z,70.50
2022-09-10T02:00:01.753Z,70.50
2022-09-10T02:02:34.962Z,70.60
2022-09-10T02:05:05.003Z,70.50
2022-09-10T02:07:37.016Z,70.30
2022-09-10T02:10:08.501Z,70.80
2022-09-10T02:12:37.544Z,70.80
2022-09-10T02:15:09.155Z,70.70
2022-09-10T02:17:39.805Z,71.20
2022-09-10T02:20:13.646Z,71.10
2022-09-10T02:22:46.359Z,71.40
2022-09-10T02:25:14.512Z,71.70
2022-09-10T02:27:43.913Z,71.20
2022-09-10T02:30:14.571Z,71.20
2022-09-10T02:32:42.929Z,71.70
2022-09-10T02:35:11.236Z,71.50
2022-09-10T02:37:39.313Z,71.60
2022-09-10T02:40:08.961Z,71.60
2022-09-10T02:42:38.328Z,71.60
2022-09-10T02:45:08.210Z,71.30
2022-09-10T02:47:37.802Z,71.40
2022-09-10T02:50:06.859Z,71.70
2022-09-10T02:52:35.255Z,71.60
2022-09-10T02:55:03.331Z,71.70
2022-09-10T02:57:37.212Z,71.70
2022-09-10T03:00:06.008Z,71.80
2022-09-10T03:02:34.269Z,71.80
2022-09-10T03:05:05.069Z,71.80
2022-09-10T03:07:34.361Z,71.90
2022-09-10T03:10:02.644Z,71.80
2022-09-10T03:12:30.736Z,71.90
2022-09-10T03:14:59.098Z,71.90
2022-09-10T03:17:27.581Z,72.00
2022-09-10T03:19:55.796Z,71.90
2022-09-10T03:22:25.336Z,71.80
2022-09-10T03:24:54.174Z,72.00
2022-09-10T03:27:22.862Z,72.00
2022-09-10T03:29:51.187Z,71.90
2022-09-10T03:32:19.460Z,72.00
2022-09-10T03:34:49.148Z,71.90
2022-09-10T03:37:17.341Z,71.90
2022-09-10T03:39:47.001Z,71.90
2022-09-10T03:42:15.652Z,72.00
2022-09-10T03:44:43.818Z,71.80
2022-09-10T03:47:13.010Z,71.90
2022-09-10T03:49:41.073Z,72.00
2022-09-10T03:52:12.555Z,72.10
2022-09-10T03:54:43.407Z,72.10
2022-09-10T03:57:13.048Z,72.20
2022-09-10T03:59:41.569Z,72.50
2022-09-10T04:02:10.390Z,72.40
2022-09-10T04:04:38.609Z,72.50
2022-09-10T04:07:07.075Z,72.70
2022-09-10T04:09:35.940Z,72.70
2022-09-10T04:12:04.803Z,72.80
2022-09-10T04:14:34.418Z,72.90
2022-09-10T04:17:05.960Z,73.10
2022-09-10T04:19:38.000Z,73.00
2022-09-10T04:22:06.140Z,73.30
2022-09-10T04:24:34.443Z,72.90
2022-09-10T04:27:02.613Z,73.00
2022-09-10T04:29:31.502Z,73.20
2022-09-10T04:32:01.093Z,73.10
2022-09-10T04:34:29.199Z,73.20
2022-09-10T04:36:57.294Z,73.00
2022-09-10T04:39:25.474Z,73.00
2022-09-10T04:41:53.534Z,73.00
2022-09-10T04:44:21.741Z,73.00
2022-09-10T04:46:49.791Z,73.10
2022-09-10T04:49:19.392Z,73.00
2022-09-10T04:51:47.677Z,73.10
2022-09-10T04:54:16.100Z,73.00
2022-09-10T04:56:44.638Z,73.00
2022-09-10T04:59:12.718Z,72.90
2022-09-10T05:01:40.808Z,72.90
2022-09-10T05:04:09.177Z,72.90
2022-09-10T05:06:38.652Z,72.90
2022-09-10T05:09:06.767Z,73.00
2022-09-10T05:11:34.882Z,72.80
2022-09-10T05:14:03.019Z,72.90
2022-09-10T05:16:31.107Z,72.80
2022-09-10T05:18:59.499Z,72.90
2022-09-10T05:21:27.642Z,72.90
2022-09-10T05:23:57.184Z,72.90
2022-09-10T05:26:25.807Z,73.10
2022-09-10T05:28:55.158Z,72.90
2022-09-10T05:31:23.326Z,72.90
2022-09-10T05:33:51.623Z,72.90
2022-09-10T05:36:19.924Z,72.90
2022-09-10T05:38:48.187Z,72.80
2022-09-10T05:41:18.221Z,72.80
2022-09-10T05:43:46.328Z,72.80
2022-09-10T05:46:14.600Z,72.70
2022-09-10T05:48:43.147Z,72.80
2022-09-10T05:51:11.650Z,72.80
2022-09-10T05:53:41.441Z,72.70
2022-09-10T05:56:09.883Z,72.70
2022-09-10T05:58:39.507Z,72.60
2022-09-10T06:01:07.845Z,72.70
2022-09-10T06:03:36.039Z,72.60
2022-09-10T06:06:04.149Z,72.50
2022-09-10T06:08:32.347Z,72.50
2022-09-10T06:11:05.077Z,72.50
2022-09-10T06:13:33.907Z,72.40
2022-09-10T06:16:05.174Z,72.30
2022-09-10T06:18:33.355Z,72.40
2022-09-10T06:21:06.258Z,72.20
2022-09-10T06:23:36.173Z,72.50
2022-09-10T06:26:06.187Z,72.20
2022-09-10T06:28:34.864Z,72.20
2022-09-10T06:31:05.818Z,72.20
2022-09-10T06:33:34.684Z,72.10
2022-09-10T06:36:03.719Z,72.10
2022-09-10T06:38:33.718Z,72.10
2022-09-10T06:41:04.824Z,72.10
2022-09-10T06:43:36.611Z,72.20
2022-09-10T06:46:32.080Z,72.20
2022-09-10T06:49:00.931Z,72.20
2022-09-10T06:51:29.537Z,71.80
2022-09-10T06:53:58.002Z,71.70
2022-09-10T06:56:27.216Z,71.60
2022-09-10T06:59:00.391Z,71.80
2022-09-10T07:01:32.017Z,71.70
2022-09-10T07:04:01.704Z,71.70
2022-09-10T07:06:35.345Z,71.60
2022-09-10T07:09:04.640Z,71.50
2022-09-10T07:11:32.750Z,71.50
2022-09-10T07:14:01.573Z,71.70
2022-09-10T07:16:31.622Z,71.70
2022-09-10T07:19:01.158Z,71.50
2022-09-10T07:21:30.269Z,71.50
2022-09-10T07:24:01.115Z,71.40
2022-09-10T07:26:30.028Z,71.50
2022-09-10T07:28:59.322Z,71.40
2022-09-10T07:31:29.764Z,71.30
2022-09-10T07:33:59.565Z,71.30
2022-09-10T07:36:28.243Z,71.20
2022-09-10T07:39:01.401Z,71.00
2022-09-10T07:41:31.161Z,71.20
2022-09-10T07:43:59.568Z,71.20
2022-09-10T07:46:28.455Z,71.20
2022-09-10T07:48:59.778Z,71.10
2022-09-10T07:51:30.081Z,70.90
2022-09-10T07:53:59.662Z,70.80
2022-09-10T07:56:31.844Z,70.40
2022-09-10T07:59:00.006Z,70.20
2022-09-10T08:01:28.218Z,70.00
2022-09-10T08:03:59.679Z,69.90
2022-09-10T08:06:28.062Z,69.70
2022-09-10T08:08:56.344Z,69.60
2022-09-10T08:11:24.530Z,69.50
2022-09-10T08:13:56.785Z,69.50
2022-09-10T08:16:26.914Z,69.40
2022-09-10T08:18:57.451Z,69.50
2022-09-10T08:21:27.256Z,70.20
2022-09-10T08:23:56.776Z,69.30
2022-09-10T08:26:27.553Z,69.30
2022-09-10T08:28:57.898Z,69.40
2022-09-10T08:31:27.084Z,69.50
2022-09-10T08:33:57.038Z,69.40
2022-09-10T08:36:26.631Z,69.40
2022-09-10T08:38:59.890Z,69.30
2022-09-10T08:41:40.330Z,69.30
2022-09-10T08:44:16.375Z,69.30
2022-09-10T08:46:49.168Z,69.00
2022-09-10T08:49:22.153Z,69.00
2022-09-10T08:51:56.827Z,69.10
2022-09-10T08:54:29.094Z,69.00
2022-09-10T08:57:00.721Z,68.90
2022-09-10T08:59:34.145Z,68.90
2022-09-10T09:02:11.269Z,68.90
2022-09-10T09:04:48.600Z,69.00
2022-09-10T09:07:20.781Z,69.10
2022-09-10T09:09:51.299Z,68.70
2022-09-10T09:12:28.748Z,68.80
2022-09-10T09:15:08.992Z,69.40
2022-09-10T09:17:59.734Z,69.60
2022-09-10T09:20:42.883Z,69.40
2022-09-10T09:23:23.589Z,70.40
2022-09-10T09:25:56.429Z,69.30
2022-09-10T09:28:34.723Z,68.70
2022-09-10T09:31:09.674Z,69.00
2022-09-10T09:33:39.083Z,69.20
2022-09-10T09:36:08.075Z,69.30
2022-09-10T09:38:41.355Z,69.60
2022-09-10T09:41:18.620Z,70.20
2022-09-10T09:43:54.280Z,70.20
2022-09-10T09:46:24.327Z,70.50
2022-09-10T09:48:57.429Z,70.20
2022-09-10T09:51:27.005Z,70.40
2022-09-10T09:54:34.470Z,70.00
2022-09-10T09:56:51.900Z,69.80
2022-09-10T09:59:28.806Z,69.70
2022-09-10T10:02:02.731Z,70.10
2022-09-10T10:04:33.904Z,69.70
2022-09-10T10:07:03.476Z,69.90
2022-09-10T10:09:34.785Z,69.90
2022-09-10T10:12:04.590Z,70.00
2022-09-10T10:14:39.330Z,70.00
2022-09-10T10:17:29.772Z,70.50
2022-09-10T10:20:00.995Z,70.70
2022-09-10T10:22:32.203Z,69.80
2022-09-10T10:25:03.433Z,69.70
2022-09-10T10:27:35.328Z,69.60
2022-09-10T10:30:07.330Z,70.60
2022-09-10T10:32:44.793Z,69.80
2022-09-10T10:35:39.244Z,69.60
2022-09-10T10:38:34.485Z,69.70
2022-09-10T10:41:34.326Z,70.60
2022-09-10T10:44:15.731Z,71.00
2022-09-10T10:46:54.005Z,71.20
2022-09-10T10:49:29.112Z,71.10
2022-09-10T10:52:07.224Z,70.70
2022-09-10T10:54:48.120Z,70.60
2022-09-10T10:57:26.425Z,70.40
2022-09-10T11:00:02.212Z,70.40
2022-09-10T11:02:44.040Z,69.70
2022-09-10T11:05:23.581Z,69.40
2022-09-10T11:07:52.802Z,70.00
2022-09-10T11:10:26.989Z,70.20
2022-09-10T11:13:04.772Z,70.60
2022-09-10T11:15:42.389Z,71.30
2022-09-10T11:18:19.222Z,70.00
2022-09-10T11:21:00.532Z,68.60
2022-09-10T11:23:33.524Z,67.80
2022-09-10T11:26:06.004Z,66.80
2022-09-10T11:28:39.758Z,67.20
2022-09-10T11:31:14.398Z,63.00
2022-09-10T11:33:49.427Z,61.40
2022-09-10T11:36:25.157Z,60.80
2022-09-10T11:39:06.730Z,61.00
2022-09-10T11:41:37.003Z,61.00
2022-09-10T11:44:18.004Z,61.40
2022-09-10T11:46:54.645Z,59.50
2022-09-10T11:49:26.474Z,59.20
2022-09-10T11:51:56.036Z,58.40
2022-09-10T11:54:28.480Z,57.70
2022-09-10T11:57:02.971Z,56.10
2022-09-10T11:59:56.094Z,55.40
2022-09-10T12:03:02.681Z,55.10
2022-09-10T12:05:42.418Z,55.60
2022-09-10T12:08:17.573Z,55.70
2022-09-10T12:10:55.710Z,56.00
2022-09-10T12:13:23.947Z,56.20
2022-09-10T12:15:58.476Z,56.70
2022-09-10T12:18:30.004Z,56.00
2022-09-10T12:21:04.138Z,56.10
2022-09-10T12:23:35.555Z,55.30
2022-09-10T12:26:10.644Z,54.60
2022-09-10T12:29:02.167Z,54.10
2022-09-10T12:32:09.985Z,54.60
2022-09-10T12:34:38.585Z,54.60
2022-09-10T12:37:24.855Z,54.90
2022-09-10T12:40:38.504Z,55.80
2022-09-10T12:43:39.764Z,56.10
2022-09-10T12:46:18.768Z,56.60
2022-09-10T12:48:50.993Z,56.60
2022-09-10T12:51:32.294Z,57.00
2022-09-10T12:54:29.737Z,57.70
2022-09-10T12:57:14.671Z,58.50
2022-09-10T13:00:24.579Z,59.80
2022-09-10T13:02:58.793Z,59.90
2022-09-10T13:05:35.579Z,60.40
2022-09-10T13:08:13.571Z,61.20
2022-09-10T13:10:43.438Z,61.80
2022-09-10T13:13:33.950Z,62.20
2022-09-10T13:16:03.545Z,62.90
2022-09-10T13:18:34.005Z,62.60
2022-09-10T13:21:42.441Z,63.30
2022-09-10T13:24:37.874Z,62.90
2022-09-10T13:27:20.173Z,63.70
2022-09-10T13:29:52.617Z,63.60
2022-09-10T13:32:29.887Z,63.90
2022-09-10T13:35:17.146Z,63.70
2022-09-10T13:38:21.430Z,63.30
2022-09-10T13:41:21.204Z,62.60
2022-09-10T13:44:10.336Z,62.90
2022-09-10T13:46:42.742Z,63.40
2022-09-10T13:49:16.703Z,62.90
2022-09-10T13:51:52.344Z,63.40
2022-09-10T13:54:35.304Z,63.30
2022-09-10T13:57:13.438Z,63.50
2022-09-10T13:59:43.516Z,63.80
2022-09-10T14:02:12.005Z,64.10
2022-09-10T14:04:45.046Z,63.90
2022-09-10T14:07:16.094Z,63.70
2022-09-10T14:09:48.776Z,63.50
2022-09-10T14:12:20.943Z,63.70
2022-09-10T14:14:53.011Z,64.30
2022-09-10T14:17:25.618Z,64.50
2022-09-10T14:19:59.130Z,65.00
2022-09-10T14:22:28.682Z,66.20
2022-09-10T14:24:59.862Z,65.90
2022-09-10T14:27:31.013Z,66.40
2022-09-10T14:30:21.998Z,66.60
2022-09-10T14:32:50.618Z,66.50
2022-09-10T14:35:39.215Z,66.20
2022-09-10T14:38:23.344Z,66.40
2022-09-10T14:40:58.129Z,66.50
2022-09-10T14:43:32.216Z,66.10
2022-09-10T14:46:01.295Z,66.30
2022-09-10T14:48:33.514Z,66.20
2022-09-10T14:51:20.744Z,66.80
2022-09-10T14:53:53.067Z,66.80
2022-09-10T14:56:26.356Z,66.50
2022-09-10T14:59:00.232Z,66.80
2022-09-10T15:01:29.334Z,66.80
2022-09-10T15:03:57.869Z,66.80
2022-09-10T15:06:27.113Z,66.90
2022-09-10T15:08:57.122Z,67.00
2022-09-10T15:11:28.527Z,66.50
2022-09-10T15:13:59.191Z,66.60
2022-09-10T15:16:27.599Z,66.50
2022-09-10T15:18:55.917Z,66.20
2022-09-10T15:21:24.137Z,66.60
2022-09-10T15:23:52.240Z,66.30
2022-09-10T15:26:20.843Z,65.60
2022-09-10T15:28:50.337Z,65.50
2022-09-10T15:31:21.069Z,65.60
2022-09-10T15:33:49.440Z,65.80
2022-09-10T15:36:17.693Z,65.60
2022-09-10T15:38:46.368Z,65.80
2022-09-10T15:41:15.034Z,66.20
2022-09-10T15:43:44.883Z,66.70
2022-09-10T15:46:17.061Z,67.30
2022-09-10T15:48:47.505Z,67.80
2022-09-10T15:51:20.533Z,67.60
2022-09-10T15:53:49.896Z,68.30
2022-09-10T15:56:18.705Z,68.20
2022-09-10T15:58:55.055Z,68.50
2022-09-10T16:01:30.636Z,68.90
2022-09-10T16:04:02.757Z,68.70
2022-09-10T16:06:34.588Z,68.70
2022-09-10T16:09:05.012Z,69.00
2022-09-10T16:11:34.513Z,69.00
2022-09-10T16:14:05.604Z,68.80
2022-09-10T16:16:37.123Z,68.80
2022-09-10T16:19:06.846Z,69.00
2022-09-10T16:21:37.759Z,68.90
2022-09-10T16:24:07.656Z,69.00
2022-09-10T16:26:37.622Z,69.40
2022-09-10T16:29:14.099Z,69.30
2022-09-10T16:31:45.499Z,69.20
2022-09-10T16:34:16.116Z,69.50
2022-09-10T16:36:45.201Z,69.40
2022-09-10T16:39:16.277Z,69.60
2022-09-10T16:41:46.500Z,69.50
2022-09-10T16:44:16.060Z,69.70
2022-09-10T16:46:46.302Z,69.50
2022-09-10T16:49:17.231Z,69.70
2022-09-10T16:51:47.145Z,69.80
2022-09-10T16:54:19.444Z,69.80
2022-09-10T16:56:52.491Z,70.00
2022-09-10T16:59:22.194Z,69.90
2022-09-10T17:01:53.252Z,69.80
2022-09-10T17:04:28.275Z,70.40
2022-09-10T17:06:57.409Z,70.50
2022-09-10T17:09:25.952Z,70.50
2022-09-10T17:11:54.562Z,70.60
2022-09-10T17:14:22.822Z,70.70
2022-09-10T17:16:52.399Z,70.70
2022-09-10T17:19:23.765Z,70.90
2022-09-10T17:21:55.336Z,70.90
2022-09-10T17:24:25.192Z,71.10
2022-09-10T17:26:55.134Z,71.30
2022-09-10T17:29:25.774Z,71.60
2022-09-10T17:31:57.417Z,71.90
2022-09-10T17:34:26.533Z,72.00
2022-09-10T17:36:54.921Z,71.90
2022-09-10T17:39:23.230Z,72.00
2022-09-10T17:41:55.211Z,72.00
2022-09-10T17:44:24.345Z,72.50
2022-09-10T17:46:54.047Z,72.60
2022-09-10T17:49:22.204Z,72.60
2022-09-10T17:51:51.084Z,72.60
2022-09-10T17:54:19.708Z,72.60
2022-09-10T17:56:47.799Z,72.70
2022-09-10T17:59:15.979Z,73.30
2022-09-10T18:01:44.394Z,72.70
2022-09-10T18:04:14.551Z,72.70
2022-09-10T18:06:43.745Z,73.00
2022-09-10T18:09:12.413Z,72.90
2022-09-10T18:11:43.447Z,73.00
2022-09-10T18:14:17.588Z,73.00
2022-09-10T18:16:46.628Z,73.10
2022-09-10T18:19:18.158Z,72.60
2022-09-10T18:21:48.340Z,72.80
2022-09-10T18:24:19.032Z,72.70
2022-09-10T18:26:48.652Z,72.70
2022-09-10T18:29:19.001Z,72.90
2022-09-10T18:31:49.313Z,72.80
2022-09-10T18:34:23.208Z,73.00
2022-09-10T18:36:54.350Z,73.10
2022-09-10T18:39:23.964Z,72.90
2022-09-10T18:41:53.001Z,73.20
2022-09-10T18:44:22.467Z,73.20
2022-09-10T18:46:52.826Z,73.50
2022-09-10T18:49:25.128Z,73.80
2022-09-10T18:51:56.043Z,74.40
2022-09-10T18:54:25.364Z,74.20
2022-09-10T18:56:53.986Z,74.20
2022-09-10T18:59:23.805Z,73.90
2022-09-10T19:01:53.668Z,73.90
2022-09-10T19:04:25.674Z,73.90
2022-09-10T19:06:54.698Z,74.10
2022-09-10T19:09:24.726Z,74.10
2022-09-10T19:11:54.508Z,74.20
2022-09-10T19:14:26.109Z,74.00
2022-09-10T19:16:56.527Z,74.00
2022-09-10T19:19:27.785Z,74.10
2022-09-10T19:22:01.315Z,74.20
2022-09-10T19:24:51.059Z,74.40
2022-09-10T19:27:17.906Z,74.20
2022-09-10T19:29:47.351Z,74.00
2022-09-10T19:32:17.153Z,74.10
2022-09-10T19:34:46.844Z,74.10
2022-09-10T19:37:15.055Z,74.20
2022-09-10T19:39:44.414Z,74.20
2022-09-10T19:42:12.829Z,74.30
2022-09-10T19:44:41.169Z,74.20
2022-09-10T19:47:09.299Z,74.20
2022-09-10T19:49:37.382Z,74.10
2022-09-10T19:52:06.963Z,74.20
2022-09-10T19:54:36.348Z,74.40
2022-09-10T19:57:04.682Z,74.20
2022-09-10T19:59:33.062Z,74.10
2022-09-10T20:02:01.521Z,74.10
2022-09-10T20:04:29.817Z,73.90
2022-09-10T20:06:57.975Z,74.00
2022-09-10T20:09:27.827Z,74.00
2022-09-10T20:11:56.173Z,74.40
2022-09-10T20:14:24.255Z,74.30
2022-09-10T20:16:52.398Z,74.40
2022-09-10T20:19:22.235Z,74.40
2022-09-10T20:21:51.537Z,74.30
2022-09-10T20:24:19.729Z,74.40
2022-09-10T20:26:49.606Z,74.40
2022-09-10T20:29:19.417Z,74.60
2022-09-10T20:31:49.401Z,74.60
2022-09-10T20:34:19.792Z,74.60
2022-09-10T20:36:51.194Z,74.70
2022-09-10T20:39:21.844Z,74.70
2022-09-10T20:41:51.558Z,74.90
2022-09-10T20:44:20.984Z,74.90
2022-09-10T20:46:49.042Z,74.80
2022-09-10T20:49:17.850Z,74.80
2022-09-10T20:51:46.267Z,74.90
2022-09-10T20:54:17.914Z,74.90
2022-09-10T20:56:46.519Z,75.20
2022-09-10T20:59:17.833Z,75.10
2022-09-10T21:01:47.674Z,75.30
2022-09-10T21:04:16.125Z,75.40
2022-09-10T21:06:44.677Z,75.30
2022-09-10T21:09:13.601Z,75.30
2022-09-10T21:11:42.151Z,75.30
2022-09-10T21:14:11.073Z,75.40
2022-09-10T21:16:43.165Z,75.40
2022-09-10T21:19:13.319Z,75.60
2022-09-10T21:21:43.107Z,75.50
2022-09-10T21:24:13.351Z,75.60
2022-09-10T21:26:43.616Z,75.60
2022-09-10T21:29:14.392Z,75.70
2022-09-10T21:31:45.305Z,75.70
2022-09-10T21:34:14.147Z,75.70
2022-09-10T21:36:45.180Z,75.60
2022-09-10T21:39:14.851Z,75.60
2022-09-10T21:41:45.325Z,75.70
2022-09-10T21:44:15.156Z,75.90
2022-09-10T21:46:45.430Z,75.80
2022-09-10T21:49:14.094Z,76.00
2022-09-10T21:51:42.983Z,76.10
2022-09-10T21:54:15.406Z,76.20
2022-09-10T21:56:43.618Z,76.60
2022-09-10T21:59:13.017Z,76.30
2022-09-10T22:01:43.693Z,76.40
2022-09-10T22:04:16.815Z,76.40
2022-09-10T22:06:47.114Z,76.40
2022-09-10T22:09:16.968Z,76.20
2022-09-10T22:11:47.248Z,76.30
2022-09-10T22:14:17.595Z,76.20
2022-09-10T22:16:46.573Z,76.50
2022-09-10T22:19:27.348Z,76.60
2022-09-10T22:21:56.832Z,77.20
2022-09-10T22:24:26.293Z,76.50
2022-09-10T22:26:54.621Z,76.70
2022-09-10T22:29:23.058Z,76.70
2022-09-10T22:31:51.201Z,76.60
2022-09-10T22:34:20.927Z,76.50
2022-09-10T22:36:50.554Z,76.60
2022-09-10T22:39:20.977Z,76.70
2022-09-10T22:41:49.945Z,76.50
2022-09-10T22:44:19.912Z,76.50
2022-09-10T22:46:48.595Z,76.60
2022-09-10T22:49:18.078Z,76.60
2022-09-10T22:51:46.389Z,76.60
2022-09-10T22:54:16.628Z,76.70
2022-09-10T22:56:45.609Z,76.90
2022-09-10T22:59:15.250Z,76.90
2022-09-10T23:01:47.414Z,76.90
2022-09-10T23:04:16.300Z,76.80
2022-09-10T23:06:44.506Z,76.70
2022-09-10T23:09:16.230Z,76.80
2022-09-10T23:11:45.989Z,76.90
2022-09-10T23:14:17.688Z,77.00
2022-09-10T23:16:48.326Z,77.10
2022-09-10T23:19:19.182Z,77.90
2022-09-10T23:21:49.685Z,77.50
2022-09-10T23:24:20.979Z,77.50
2022-09-10T23:26:49.465Z,77.70
2022-09-10T23:29:18.177Z,77.60
2022-09-10T23:31:48.044Z,77.60
2022-09-10T23:34:18.118Z,77.60
2022-09-10T23:36:48.109Z,77.60
2022-09-10T23:39:19.807Z,77.70
2022-09-10T23:41:49.226Z,77.70
2022-09-10T23:44:17.562Z,77.60
2022-09-10T23:46:45.845Z,77.50
2022-09-10T23:49:14.344Z,77.50
2022-09-10T23:51:42.806Z,77.50
2022-09-10T23:54:11.610Z,77.40
2022-09-10T23:56:41.568Z,77.40
2022-09-10T23:59:10.320Z,77.40
